sensor_id;sensor_type;location;lat;lon;timestamp;temperature;humidity
1181;DHT22;579;52.046;8.532;2023-01-20T00:00:16;2.90;1.00
1181;DHT22;579;52.046;8.532;2023-01-20T00:02:43;3.00;1.00
1181;DHT22;579;52.046;8.532;2023-01-20T00:05:09;3.20;1.00
1181;DHT22;579;52.046;8.532;2023-01-20T00:07:36;3.40;1.00
1181;DHT22;579;52.046;8.532;2023-01-20T00:10:02;3.30;1.00
1181;DHT22;579;52.046;8.532;2023-01-20T00:12:30;3.40;1.00
1181;DHT22;579;52.046;8.532;2023-01-20T00:14:56;3.30;1.00
1181;DHT22;579;52.046;8.532;2023-01-20T00:22:27;3.00;1.00
1181;DHT22;579;52.046;8.532;2023-01-20T00:24:53;2.90;1.00
1181;DHT22;579;52.046;8.532;2023-01-20T00:27:19;2.80;1.00
1181;DHT22;579;52.046;8.532;2023-01-20T00:29:45;2.80;1.00
1181;DHT22;579;52.046;8.532;2023-01-20T00:32:12;2.90;1.00
1181;DHT22;579;52.046;8.532;2023-01-20T00:34:38;3.10;1.00
1181;DHT22;579;52.046;8.532;2023-01-20T00:37:04;3.00;1.00
1181;DHT22;579;52.046;8.532;2023-01-20T00:44:33;2.80;1.00
1181;DHT22;579;52.046;8.532;2023-01-20T00:47:00;3.00;1.00
1181;DHT22;579;52.046;8.532;2023-01-20T00:49:26;3.00;1.00
1181;DHT22;579;52.046;8.532;2023-01-20T00:51:52;3.00;1.00
1181;DHT22;579;52.046;8.532;2023-01-20T00:54:18;3.30;1.00
1181;DHT22;579;52.046;8.532;2023-01-20T00:56:45;3.60;1.00
1181;DHT22;579;52.046;8.532;2023-01-20T00:59:11;3.40;1.00
1181;DHT22;579;52.046;8.532;2023-01-20T01:06:42;3.70;1.00
1181;DHT22;579;52.046;8.532;2023-01-20T01:09:09;3.80;1.00
1181;DHT22;579;52.046;8.532;2023-01-20T01:11:35;3.80;1.00
1181;DHT22;579;52.046;8.532;2023-01-20T01:14:02;3.70;1.00
1181;DHT22;579;52.046;8.532;2023-01-20T01:16:28;3.70;1.00
1181;DHT22;579;52.046;8.532;2023-01-20T01:18:54;3.70;1.00
1181;DHT22;579;52.046;8.532;2023-01-20T01:21:21;4.10;1.00
1181;DHT22;579;52.046;8.532;2023-01-20T01:28:51;4.20;1.00
1181;DHT22;579;52.046;8.532;2023-01-20T01:31:18;4.00;1.00
1181;DHT22;579;52.046;8.532;2023-01-20T01:33:46;3.90;1.00
1181;DHT22;579;52.046;8.532;2023-01-20T01:36:15;3.90;1.00
1181;DHT22;579;52.046;8.532;2023-01-20T01:38:42;3.70;1.00
1181;DHT22;579;52.046;8.532;2023-01-20T01:41:09;3.90;1.00
1181;DHT22;579;52.046;8.532;2023-01-20T01:43:38;4.10;1.00
1181;DHT22;579;52.046;8.532;2023-01-20T01:49:08;4.00;1.00
1181;DHT22;579;52.046;8.532;2023-01-20T01:51:39;4.00;1.00
1181;DHT22;579;52.046;8.532;2023-01-20T01:54:11;4.00;1.00
1181;DHT22;579;52.046;8.532;2023-01-20T01:56:39;3.70;1.00
1181;DHT22;579;52.046;8.532;2023-01-20T01:59:07;4.00;1.00
1181;DHT22;579;52.046;8.532;2023-01-20T02:01:35;4.40;1.00
1181;DHT22;579;52.046;8.532;2023-01-20T02:04:06;4.40;1.00
1181;DHT22;579;52.046;8.532;2023-01-20T02:11:08;4.30;1.00
1181;DHT22;579;52.046;8.532;2023-01-20T02:13:34;4.40;1.00
1181;DHT22;579;52.046;8.532;2023-01-20T02:16:09;4.60;1.00
1181;DHT22;579;52.046;8.532;2023-01-20T02:18:52;4.70;1.00
1181;DHT22;579;52.046;8.532;2023-01-20T02:31:12;4.60;1.00
1181;DHT22;579;52.046;8.532;2023-01-20T02:33:55;4.60;1.00
1181;DHT22;579;52.046;8.532;2023-01-20T02:36:29;4.40;1.00
1181;DHT22;579;52.046;8.532;2023-01-20T02:39:01;4.70;1.00
1181;DHT22;579;52.046;8.532;2023-01-20T02:41:35;4.30;1.00
1181;DHT22;579;52.046;8.532;2023-01-20T02:44:11;4.60;1.00
1181;DHT22;579;52.046;8.532;2023-01-20T02:49:46;4.40;1.00
1181;DHT22;579;52.046;8.532;2023-01-20T02:52:20;4.50;1.00
1181;DHT22;579;52.046;8.532;2023-01-20T02:54:51;4.50;1.00
1181;DHT22;579;52.046;8.532;2023-01-20T02:57:22;4.70;1.00
1181;DHT22;579;52.046;8.532;2023-01-20T02:59:53;4.30;1.00
1181;DHT22;579;52.046;8.532;2023-01-20T03:02:27;4.30;1.00
1181;DHT22;579;52.046;8.532;2023-01-20T03:04:57;4.10;1.00
1181;DHT22;579;52.046;8.532;2023-01-20T03:07:54;4.20;1.00
1181;DHT22;579;52.046;8.532;2023-01-20T03:10:23;4.00;1.00
1181;DHT22;579;52.046;8.532;2023-01-20T03:12:53;4.00;1.00
1181;DHT22;579;52.046;8.532;2023-01-20T03:15:23;3.90;1.00
1181;DHT22;579;52.046;8.532;2023-01-20T03:17:51;4.10;1.00
1181;DHT22;579;52.046;8.532;2023-01-20T03:20:17;4.50;1.00
1181;DHT22;579;52.046;8.532;2023-01-20T03:22:43;4.50;1.00
1181;DHT22;579;52.046;8.532;2023-01-20T03:29:36;4.80;1.00
1181;DHT22;579;52.046;8.532;2023-01-20T03:32:04;4.80;1.00
1181;DHT22;579;52.046;8.532;2023-01-20T03:34:34;4.70;1.00
1181;DHT22;579;52.046;8.532;2023-01-20T03:37:03;4.80;1.00
1181;DHT22;579;52.046;8.532;2023-01-20T03:39:30;4.50;1.00
1181;DHT22;579;52.046;8.532;2023-01-20T03:42:04;4.40;1.00
1181;DHT22;579;52.046;8.532;2023-01-20T03:44:45;4.10;1.00
1181;DHT22;579;52.046;8.532;2023-01-20T03:52:26;4.20;1.00
1181;DHT22;579;52.046;8.532;2023-01-20T03:54:59;4.00;1.00
1181;DHT22;579;52.046;8.532;2023-01-20T03:57:33;3.70;1.00
1181;DHT22;579;52.046;8.532;2023-01-20T04:00:04;4.10;1.00
1181;DHT22;579;52.046;8.532;2023-01-20T04:02:34;4.50;1.00
1181;DHT22;579;52.046;8.532;2023-01-20T04:05:02;4.10;1.00
1181;DHT22;579;52.046;8.532;2023-01-20T04:07:30;4.20;1.00
1181;DHT22;579;52.046;8.532;2023-01-20T04:14:38;3.60;1.00
1181;DHT22;579;52.046;8.532;2023-01-20T04:17:04;3.70;1.00
1181;DHT22;579;52.046;8.532;2023-01-20T04:19:32;3.50;1.00
1181;DHT22;579;52.046;8.532;2023-01-20T04:22:01;3.70;1.00
1181;DHT22;579;52.046;8.532;2023-01-20T04:24:33;3.70;1.00
1181;DHT22;579;52.046;8.532;2023-01-20T04:27:03;3.60;1.00
1181;DHT22;579;52.046;8.532;2023-01-20T04:29:29;3.30;1.00
1181;DHT22;579;52.046;8.532;2023-01-20T04:32:19;3.80;1.00
1181;DHT22;579;52.046;8.532;2023-01-20T04:34:45;2.90;1.00
1181;DHT22;579;52.046;8.532;2023-01-20T04:37:12;3.10;1.00
1181;DHT22;579;52.046;8.532;2023-01-20T04:39:38;2.90;1.00
1181;DHT22;579;52.046;8.532;2023-01-20T04:42:04;2.90;1.00
1181;DHT22;579;52.046;8.532;2023-01-20T04:44:31;2.60;1.00
1181;DHT22;579;52.046;8.532;2023-01-20T04:46:58;2.90;1.00
1181;DHT22;579;52.046;8.532;2023-01-20T04:53:29;3.20;1.00
1181;DHT22;579;52.046;8.532;2023-01-20T04:55:56;3.30;1.00
1181;DHT22;579;52.046;8.532;2023-01-20T04:58:22;3.30;1.00
1181;DHT22;579;52.046;8.532;2023-01-20T05:00:48;3.50;1.00
1181;DHT22;579;52.046;8.532;2023-01-20T05:03:15;3.20;1.00
1181;DHT22;579;52.046;8.532;2023-01-20T05:05:41;3.20;1.00
1181;DHT22;579;52.046;8.532;2023-01-20T05:08:07;3.60;1.00
1181;DHT22;579;52.046;8.532;2023-01-20T05:15:41;3.70;1.00
1181;DHT22;579;52.046;8.532;2023-01-20T05:18:08;3.60;1.00
1181;DHT22;579;52.046;8.532;2023-01-20T05:20:34;3.80;1.00
1181;DHT22;579;52.046;8.532;2023-01-20T05:23:00;3.60;1.00
1181;DHT22;579;52.046;8.532;2023-01-20T05:25:27;3.30;1.00
1181;DHT22;579;52.046;8.532;2023-01-20T05:27:53;3.50;1.00
1181;DHT22;579;52.046;8.532;2023-01-20T05:30:19;3.20;1.00
1181;DHT22;579;52.046;8.532;2023-01-20T05:37:52;3.30;1.00
1181;DHT22;579;52.046;8.532;2023-01-20T05:40:19;2.80;1.00
1181;DHT22;579;52.046;8.532;2023-01-20T05:42:45;3.30;1.00
1181;DHT22;579;52.046;8.532;2023-01-20T05:45:11;3.40;1.00
1181;DHT22;579;52.046;8.532;2023-01-20T05:47:37;3.60;1.00
1181;DHT22;579;52.046;8.532;2023-01-20T05:50:04;3.60;1.00
1181;DHT22;579;52.046;8.532;2023-01-20T05:52:31;3.40;1.00
1181;DHT22;579;52.046;8.532;2023-01-20T06:01:12;3.30;1.00
1181;DHT22;579;52.046;8.532;2023-01-20T06:03:39;3.30;1.00
1181;DHT22;579;52.046;8.532;2023-01-20T06:06:07;3.60;1.00
1181;DHT22;579;52.046;8.532;2023-01-20T06:08:38;3.50;1.00
1181;DHT22;579;52.046;8.532;2023-01-20T06:11:05;3.60;1.00
1181;DHT22;579;52.046;8.532;2023-01-20T06:13:31;3.60;1.00
1181;DHT22;579;52.046;8.532;2023-01-20T06:15:57;3.40;1.00
1181;DHT22;579;52.046;8.532;2023-01-20T06:24:34;3.20;1.00
1181;DHT22;579;52.046;8.532;2023-01-20T06:27:00;3.40;1.00
1181;DHT22;579;52.046;8.532;2023-01-20T06:29:26;3.40;1.00
1181;DHT22;579;52.046;8.532;2023-01-20T06:31:52;3.30;1.00
1181;DHT22;579;52.046;8.532;2023-01-20T06:34:19;3.30;1.00
1181;DHT22;579;52.046;8.532;2023-01-20T06:36:45;3.50;1.00
1181;DHT22;579;52.046;8.532;2023-01-20T06:39:11;3.70;1.00
1181;DHT22;579;52.046;8.532;2023-01-20T06:46:42;3.70;1.00
1181;DHT22;579;52.046;8.532;2023-01-20T06:49:08;3.40;1.00
1181;DHT22;579;52.046;8.532;2023-01-20T06:51:35;3.40;1.00
1181;DHT22;579;52.046;8.532;2023-01-20T06:54:01;3.50;1.00
1181;DHT22;579;52.046;8.532;2023-01-20T06:56:27;3.70;1.00
1181;DHT22;579;52.046;8.532;2023-01-20T06:58:53;3.60;1.00
1181;DHT22;579;52.046;8.532;2023-01-20T07:01:22;3.80;1.00
1181;DHT22;579;52.046;8.532;2023-01-20T07:08:55;3.50;1.00
1181;DHT22;579;52.046;8.532;2023-01-20T07:11:22;3.70;1.00
1181;DHT22;579;52.046;8.532;2023-01-20T07:13:49;3.70;1.00
1181;DHT22;579;52.046;8.532;2023-01-20T07:16:21;3.50;1.00
1181;DHT22;579;52.046;8.532;2023-01-20T07:18:49;3.60;1.00
1181;DHT22;579;52.046;8.532;2023-01-20T07:21:17;4.10;1.00
1181;DHT22;579;52.046;8.532;2023-01-20T07:23:46;4.10;1.00
1181;DHT22;579;52.046;8.532;2023-01-20T07:29:38;4.00;1.00
1181;DHT22;579;52.046;8.532;2023-01-20T07:32:05;3.90;1.00
1181;DHT22;579;52.046;8.532;2023-01-20T07:34:31;3.80;1.00
1181;DHT22;579;52.046;8.532;2023-01-20T07:36:58;3.80;1.00
1181;DHT22;579;52.046;8.532;2023-01-20T07:39:26;3.40;1.00
1181;DHT22;579;52.046;8.532;2023-01-20T07:41:53;3.90;1.00
1181;DHT22;579;52.046;8.532;2023-01-20T07:44:20;3.60;1.00
1181;DHT22;579;52.046;8.532;2023-01-20T07:49:24;4.00;1.00
1181;DHT22;579;52.046;8.532;2023-01-20T07:51:50;4.00;1.00
1181;DHT22;579;52.046;8.532;2023-01-20T07:54:17;3.90;1.00
1181;DHT22;579;52.046;8.532;2023-01-20T07:56:43;4.20;1.00
1181;DHT22;579;52.046;8.532;2023-01-20T07:59:10;3.90;1.00
1181;DHT22;579;52.046;8.532;2023-01-20T08:01:36;4.20;1.00
1181;DHT22;579;52.046;8.532;2023-01-20T08:04:03;3.90;1.00
1181;DHT22;579;52.046;8.532;2023-01-20T08:09:09;4.50;1.00
1181;DHT22;579;52.046;8.532;2023-01-20T08:11:37;4.20;1.00
1181;DHT22;579;52.046;8.532;2023-01-20T08:14:04;4.10;1.00
1181;DHT22;579;52.046;8.532;2023-01-20T08:16:32;4.50;1.00
1181;DHT22;579;52.046;8.532;2023-01-20T08:19:04;4.60;1.00
1181;DHT22;579;52.046;8.532;2023-01-20T08:21:34;4.80;1.00
1181;DHT22;579;52.046;8.532;2023-01-20T08:26:52;4.50;1.00
1181;DHT22;579;52.046;8.532;2023-01-20T08:29:19;3.90;1.00
1181;DHT22;579;52.046;8.532;2023-01-20T08:31:49;4.50;1.00
1181;DHT22;579;52.046;8.532;2023-01-20T08:34:20;4.20;1.00
1181;DHT22;579;52.046;8.532;2023-01-20T08:36:48;4.70;1.00
1181;DHT22;579;52.046;8.532;2023-01-20T08:39:17;4.90;1.00
1181;DHT22;579;52.046;8.532;2023-01-20T08:44:43;4.40;1.00
1181;DHT22;579;52.046;8.532;2023-01-20T08:47:18;4.50;1.00
1181;DHT22;579;52.046;8.532;2023-01-20T08:49:55;4.30;1.00
1181;DHT22;579;52.046;8.532;2023-01-20T08:52:52;4.20;1.00
1181;DHT22;579;52.046;8.532;2023-01-20T08:56:36;4.30;1.00
1181;DHT22;579;52.046;8.532;2023-01-20T09:02:29;4.20;1.00
1181;DHT22;579;52.046;8.532;2023-01-20T09:05:10;4.60;1.00
1181;DHT22;579;52.046;8.532;2023-01-20T09:07:50;4.70;1.00
1181;DHT22;579;52.046;8.532;2023-01-20T09:11:06;4.40;1.00
1181;DHT22;579;52.046;8.532;2023-01-20T09:14:34;4.50;1.00
1181;DHT22;579;52.046;8.532;2023-01-20T09:24:30;4.10;1.00
1181;DHT22;579;52.046;8.532;2023-01-20T09:35:02;4.70;1.00
1181;DHT22;579;52.046;8.532;2023-01-20T09:37:29;4.80;1.00
1181;DHT22;579;52.046;8.532;2023-01-20T09:40:20;4.40;1.00
1181;DHT22;579;52.046;8.532;2023-01-20T09:51:03;4.80;1.00
1181;DHT22;579;52.046;8.532;2023-01-20T09:53:59;4.90;1.00
1181;DHT22;579;52.046;8.532;2023-01-20T09:56:36;5.10;1.00
1181;DHT22;579;52.046;8.532;2023-01-20T09:59:13;4.70;1.00
1181;DHT22;579;52.046;8.532;2023-01-20T10:01:44;4.80;1.00
1181;DHT22;579;52.046;8.532;2023-01-20T10:07:47;4.60;1.00
1181;DHT22;579;52.046;8.532;2023-01-20T10:10:22;4.80;1.00
1181;DHT22;579;52.046;8.532;2023-01-20T10:12:55;4.50;1.00
1181;DHT22;579;52.046;8.532;2023-01-20T10:15:28;4.60;1.00
1181;DHT22;579;52.046;8.532;2023-01-20T10:17:59;5.00;1.00
1181;DHT22;579;52.046;8.532;2023-01-20T10:20:30;5.00;1.00
1181;DHT22;579;52.046;8.532;2023-01-20T10:26:00;4.90;1.00
1181;DHT22;579;52.046;8.532;2023-01-20T10:28:34;5.40;1.00
1181;DHT22;579;52.046;8.532;2023-01-20T10:31:03;5.40;1.00
1181;DHT22;579;52.046;8.532;2023-01-20T10:33:33;5.40;1.00
1181;DHT22;579;52.046;8.532;2023-01-20T10:36:04;5.30;1.00
1181;DHT22;579;52.046;8.532;2023-01-20T10:38:41;5.00;1.00
1181;DHT22;579;52.046;8.532;2023-01-20T10:43:52;5.30;1.00
1181;DHT22;579;52.046;8.532;2023-01-20T10:46:31;5.00;1.00
1181;DHT22;579;52.046;8.532;2023-01-20T10:49:30;5.50;1.00
1181;DHT22;579;52.046;8.532;2023-01-20T10:52:17;5.50;1.00
1181;DHT22;579;52.046;8.532;2023-01-20T10:54:57;5.60;1.00
1181;DHT22;579;52.046;8.532;2023-01-20T10:57:27;6.00;1.00
1181;DHT22;579;52.046;8.532;2023-01-20T11:02:36;5.90;1.00
1181;DHT22;579;52.046;8.532;2023-01-20T11:05:15;6.20;1.00
1181;DHT22;579;52.046;8.532;2023-01-20T11:07:43;5.80;1.00
1181;DHT22;579;52.046;8.532;2023-01-20T11:10:14;5.90;1.00
1181;DHT22;579;52.046;8.532;2023-01-20T11:12:43;6.10;1.00
1181;DHT22;579;52.046;8.532;2023-01-20T11:15:18;6.40;1.00
1181;DHT22;579;52.046;8.532;2023-01-20T11:23:51;6.20;1.00
1181;DHT22;579;52.046;8.532;2023-01-20T11:26:23;6.80;1.00
1181;DHT22;579;52.046;8.532;2023-01-20T11:28:53;6.80;1.00
1181;DHT22;579;52.046;8.532;2023-01-20T11:31:31;6.40;1.00
1181;DHT22;579;52.046;8.532;2023-01-20T11:34:02;6.40;1.00
1181;DHT22;579;52.046;8.532;2023-01-20T11:41:17;6.00;1.00
1181;DHT22;579;52.046;8.532;2023-01-20T11:43:49;6.30;1.00
1181;DHT22;579;52.046;8.532;2023-01-20T11:47:03;6.70;1.00
1181;DHT22;579;52.046;8.532;2023-01-20T11:50:22;6.50;1.00
1181;DHT22;579;52.046;8.532;2023-01-20T11:52:52;6.50;1.00
1181;DHT22;579;52.046;8.532;2023-01-20T11:55:45;6.40;1.00
1181;DHT22;579;52.046;8.532;2023-01-20T11:58:52;6.50;1.00
1181;DHT22;579;52.046;8.532;2023-01-20T12:01:23;6.60;1.00
1181;DHT22;579;52.046;8.532;2023-01-20T12:04:19;6.80;1.00
1181;DHT22;579;52.046;8.532;2023-01-20T12:06:56;7.10;1.00
1181;DHT22;579;52.046;8.532;2023-01-20T12:09:36;6.50;1.00
1181;DHT22;579;52.046;8.532;2023-01-20T12:12:09;6.20;1.00
1181;DHT22;579;52.046;8.532;2023-01-20T12:18:15;6.40;1.00
1181;DHT22;579;52.046;8.532;2023-01-20T12:20:45;6.10;1.00
1181;DHT22;579;52.046;8.532;2023-01-20T12:23:55;6.20;1.00
1181;DHT22;579;52.046;8.532;2023-01-20T12:26:26;6.60;1.00
1181;DHT22;579;52.046;8.532;2023-01-20T12:28:57;6.60;1.00
1181;DHT22;579;52.046;8.532;2023-01-20T12:31:27;6.20;1.00
1181;DHT22;579;52.046;8.532;2023-01-20T12:36:58;6.00;1.00
1181;DHT22;579;52.046;8.532;2023-01-20T12:39:45;5.90;1.00
1181;DHT22;579;52.046;8.532;2023-01-20T12:42:56;5.60;1.00
1181;DHT22;579;52.046;8.532;2023-01-20T12:45:48;5.80;1.00
1181;DHT22;579;52.046;8.532;2023-01-20T12:48:39;5.70;1.00
1181;DHT22;579;52.046;8.532;2023-01-20T12:57:24;5.70;1.00
1181;DHT22;579;52.046;8.532;2023-01-20T13:00:09;5.60;1.00
1181;DHT22;579;52.046;8.532;2023-01-20T13:03:13;5.50;1.00
1181;DHT22;579;52.046;8.532;2023-01-20T13:06:07;5.90;1.00
1181;DHT22;579;52.046;8.532;2023-01-20T13:14:41;5.80;1.00
1181;DHT22;579;52.046;8.532;2023-01-20T13:17:27;5.70;1.00
1181;DHT22;579;52.046;8.532;2023-01-20T13:20:01;5.80;1.00
1181;DHT22;579;52.046;8.532;2023-01-20T13:22:30;5.80;1.00
1181;DHT22;579;52.046;8.532;2023-01-20T13:24:57;5.60;1.00
1181;DHT22;579;52.046;8.532;2023-01-20T13:27:27;5.20;1.00
1181;DHT22;579;52.046;8.532;2023-01-20T13:29:58;5.10;1.00
1181;DHT22;579;52.046;8.532;2023-01-20T13:39:58;5.90;1.00
1181;DHT22;579;52.046;8.532;2023-01-20T13:42:46;5.80;1.00
1181;DHT22;579;52.046;8.532;2023-01-20T13:45:27;5.60;1.00
1181;DHT22;579;52.046;8.532;2023-01-20T13:47:56;5.60;1.00
1181;DHT22;579;52.046;8.532;2023-01-20T13:50:27;5.80;1.00
1181;DHT22;579;52.046;8.532;2023-01-20T13:58:12;5.60;1.00
1181;DHT22;579;52.046;8.532;2023-01-20T14:00:38;5.50;1.00
1181;DHT22;579;52.046;8.532;2023-01-20T14:03:13;5.10;1.00
1181;DHT22;579;52.046;8.532;2023-01-20T14:05:48;5.40;1.00
1181;DHT22;579;52.046;8.532;2023-01-20T14:08:17;5.30;1.00
1181;DHT22;579;52.046;8.532;2023-01-20T14:10:47;5.80;1.00
1181;DHT22;579;52.046;8.532;2023-01-20T14:13:19;5.20;1.00
1181;DHT22;579;52.046;8.532;2023-01-20T14:18:25;5.40;1.00
1181;DHT22;579;52.046;8.532;2023-01-20T14:20:57;5.50;1.00
1181;DHT22;579;52.046;8.532;2023-01-20T14:23:36;5.80;1.00
1181;DHT22;579;52.046;8.532;2023-01-20T14:26:12;5.50;1.00
1181;DHT22;579;52.046;8.532;2023-01-20T14:28:49;5.30;1.00
1181;DHT22;579;52.046;8.532;2023-01-20T14:31:22;5.20;1.00
1181;DHT22;579;52.046;8.532;2023-01-20T14:38:16;5.40;1.00
1181;DHT22;579;52.046;8.532;2023-01-20T14:40:48;5.80;1.00
1181;DHT22;579;52.046;8.532;2023-01-20T14:43:16;5.60;1.00
1181;DHT22;579;52.046;8.532;2023-01-20T14:45:48;5.50;1.00
1181;DHT22;579;52.046;8.532;2023-01-20T14:48:17;6.00;1.00
1181;DHT22;579;52.046;8.532;2023-01-20T14:50:48;6.40;1.00
1181;DHT22;579;52.046;8.532;2023-01-20T14:55:59;6.00;1.00
1181;DHT22;579;52.046;8.532;2023-01-20T14:58:27;6.40;1.00
1181;DHT22;579;52.046;8.532;2023-01-20T15:00:58;6.60;1.00
1181;DHT22;579;52.046;8.532;2023-01-20T15:03:27;6.60;1.00
1181;DHT22;579;52.046;8.532;2023-01-20T15:05:57;6.30;1.00
1181;DHT22;579;52.046;8.532;2023-01-20T15:08:40;6.60;1.00
1181;DHT22;579;52.046;8.532;2023-01-20T15:15:45;6.70;1.00
1181;DHT22;579;52.046;8.532;2023-01-20T15:18:15;6.50;1.00
1181;DHT22;579;52.046;8.532;2023-01-20T15:20:45;6.60;1.00
1181;DHT22;579;52.046;8.532;2023-01-20T15:23:20;6.60;1.00
1181;DHT22;579;52.046;8.532;2023-01-20T15:25:49;6.50;1.00
1181;DHT22;579;52.046;8.532;2023-01-20T15:28:25;6.50;1.00
1181;DHT22;579;52.046;8.532;2023-01-20T15:35:05;6.30;1.00
1181;DHT22;579;52.046;8.532;2023-01-20T15:37:32;6.30;1.00
1181;DHT22;579;52.046;8.532;2023-01-20T15:39:59;6.20;1.00
1181;DHT22;579;52.046;8.532;2023-01-20T15:42:25;6.10;1.00
1181;DHT22;579;52.046;8.532;2023-01-20T15:44:52;6.20;1.00
1181;DHT22;579;52.046;8.532;2023-01-20T15:47:20;6.40;1.00
1181;DHT22;579;52.046;8.532;2023-01-20T15:49:50;6.20;1.00
1181;DHT22;579;52.046;8.532;2023-01-20T15:54:40;6.00;1.00
1181;DHT22;579;52.046;8.532;2023-01-20T15:57:11;5.60;1.00
1181;DHT22;579;52.046;8.532;2023-01-20T15:59:39;5.80;1.00
1181;DHT22;579;52.046;8.532;2023-01-20T16:02:16;5.60;1.00
1181;DHT22;579;52.046;8.532;2023-01-20T16:04:46;5.60;1.00
1181;DHT22;579;52.046;8.532;2023-01-20T16:07:14;5.70;1.00
1181;DHT22;579;52.046;8.532;2023-01-20T16:12:30;5.50;1.00
1181;DHT22;579;52.046;8.532;2023-01-20T16:14:58;5.50;1.00
1181;DHT22;579;52.046;8.532;2023-01-20T16:17:29;5.20;1.00
1181;DHT22;579;52.046;8.532;2023-01-20T16:19:56;5.10;1.00
1181;DHT22;579;52.046;8.532;2023-01-20T16:22:22;5.00;1.00
1181;DHT22;579;52.046;8.532;2023-01-20T16:27:18;4.80;1.00
1181;DHT22;579;52.046;8.532;2023-01-20T16:30:14;4.70;1.00
1181;DHT22;579;52.046;8.532;2023-01-20T16:32:51;4.80;1.00
1181;DHT22;579;52.046;8.532;2023-01-20T16:35:19;4.70;1.00
1181;DHT22;579;52.046;8.532;2023-01-20T16:37:48;4.50;1.00
1181;DHT22;579;52.046;8.532;2023-01-20T16:40:16;4.50;1.00
1181;DHT22;579;52.046;8.532;2023-01-20T16:42:43;4.40;1.00
1181;DHT22;579;52.046;8.532;2023-01-20T16:48:03;4.40;1.00
1181;DHT22;579;52.046;8.532;2023-01-20T16:50:39;4.30;1.00
1181;DHT22;579;52.046;8.532;2023-01-20T16:53:06;4.20;1.00
1181;DHT22;579;52.046;8.532;2023-01-20T16:55:32;4.10;1.00
1181;DHT22;579;52.046;8.532;2023-01-20T16:58:02;4.30;1.00
1181;DHT22;579;52.046;8.532;2023-01-20T17:02:55;4.30;1.00
1181;DHT22;579;52.046;8.532;2023-01-20T17:09:43;4.20;1.00
1181;DHT22;579;52.046;8.532;2023-01-20T17:12:10;4.30;1.00
1181;DHT22;579;52.046;8.532;2023-01-20T17:14:41;4.20;1.00
1181;DHT22;579;52.046;8.532;2023-01-20T17:17:07;4.30;1.00
1181;DHT22;579;52.046;8.532;2023-01-20T17:19:35;4.40;1.00
1181;DHT22;579;52.046;8.532;2023-01-20T17:22:05;4.10;1.00
1181;DHT22;579;52.046;8.532;2023-01-20T17:27:26;4.00;1.00
1181;DHT22;579;52.046;8.532;2023-01-20T17:29:53;4.10;1.00
1181;DHT22;579;52.046;8.532;2023-01-20T17:32:19;4.10;1.00
1181;DHT22;579;52.046;8.532;2023-01-20T17:34:49;4.00;1.00
1181;DHT22;579;52.046;8.532;2023-01-20T17:37:19;3.80;1.00
1181;DHT22;579;52.046;8.532;2023-01-20T17:39:46;3.90;1.00
1181;DHT22;579;52.046;8.532;2023-01-20T17:42:13;3.80;1.00
1181;DHT22;579;52.046;8.532;2023-01-20T17:47:23;3.90;1.00
1181;DHT22;579;52.046;8.532;2023-01-20T17:49:49;3.60;1.00
1181;DHT22;579;52.046;8.532;2023-01-20T17:52:16;3.50;1.00
1181;DHT22;579;52.046;8.532;2023-01-20T17:54:44;3.40;1.00
1181;DHT22;579;52.046;8.532;2023-01-20T17:57:11;3.40;1.00
1181;DHT22;579;52.046;8.532;2023-01-20T17:59:37;3.50;1.00
1181;DHT22;579;52.046;8.532;2023-01-20T18:02:04;3.50;1.00
1181;DHT22;579;52.046;8.532;2023-01-20T18:07:58;3.50;1.00
1181;DHT22;579;52.046;8.532;2023-01-20T18:10:25;3.50;1.00
1181;DHT22;579;52.046;8.532;2023-01-20T18:12:52;3.40;1.00
1181;DHT22;579;52.046;8.532;2023-01-20T18:15:19;3.20;1.00
1181;DHT22;579;52.046;8.532;2023-01-20T18:17:46;3.20;1.00
1181;DHT22;579;52.046;8.532;2023-01-20T18:20:13;3.00;1.00
1181;DHT22;579;52.046;8.532;2023-01-20T18:22:46;3.00;1.00
1181;DHT22;579;52.046;8.532;2023-01-20T18:29:13;2.80;1.00
1181;DHT22;579;52.046;8.532;2023-01-20T18:31:43;2.90;1.00
1181;DHT22;579;52.046;8.532;2023-01-20T18:34:13;3.00;1.00
1181;DHT22;579;52.046;8.532;2023-01-20T18:36:42;2.90;1.00
1181;DHT22;579;52.046;8.532;2023-01-20T18:39:14;2.80;1.00
1181;DHT22;579;52.046;8.532;2023-01-20T18:41:48;2.70;1.00
1181;DHT22;579;52.046;8.532;2023-01-20T18:47:03;4.20;1.00
1181;DHT22;579;52.046;8.532;2023-01-20T18:49:42;2.60;1.00
1181;DHT22;579;52.046;8.532;2023-01-20T18:52:11;2.50;1.00
1181;DHT22;579;52.046;8.532;2023-01-20T18:54:38;2.30;1.00
1181;DHT22;579;52.046;8.532;2023-01-20T18:57:05;2.30;1.00
1181;DHT22;579;52.046;8.532;2023-01-20T18:59:41;2.40;1.00
1181;DHT22;579;52.046;8.532;2023-01-20T19:04:51;2.30;1.00
1181;DHT22;579;52.046;8.532;2023-01-20T19:07:21;2.30;1.00
1181;DHT22;579;52.046;8.532;2023-01-20T19:09:47;2.30;1.00
1181;DHT22;579;52.046;8.532;2023-01-20T19:12:14;2.40;1.00
1181;DHT22;579;52.046;8.532;2023-01-20T19:14:40;2.80;1.00
1181;DHT22;579;52.046;8.532;2023-01-20T19:17:07;2.30;1.00
1181;DHT22;579;52.046;8.532;2023-01-20T19:24:36;2.20;1.00
1181;DHT22;579;52.046;8.532;2023-01-20T19:27:03;2.20;1.00
1181;DHT22;579;52.046;8.532;2023-01-20T19:29:30;2.10;1.00
1181;DHT22;579;52.046;8.532;2023-01-20T19:31:57;2.20;1.00
1181;DHT22;579;52.046;8.532;2023-01-20T19:34:24;2.00;1.00
1181;DHT22;579;52.046;8.532;2023-01-20T19:36:52;2.00;1.00
1181;DHT22;579;52.046;8.532;2023-01-20T19:39:18;2.00;1.00
1181;DHT22;579;52.046;8.532;2023-01-20T19:44:18;1.90;1.00
1181;DHT22;579;52.046;8.532;2023-01-20T19:46:45;2.00;1.00
1181;DHT22;579;52.046;8.532;2023-01-20T19:49:11;2.00;1.00
1181;DHT22;579;52.046;8.532;2023-01-20T19:51:38;2.10;1.00
1181;DHT22;579;52.046;8.532;2023-01-20T19:54:05;2.30;1.00
1181;DHT22;579;52.046;8.532;2023-01-20T19:56:33;2.40;1.00
1181;DHT22;579;52.046;8.532;2023-01-20T19:59:01;2.30;1.00
1181;DHT22;579;52.046;8.532;2023-01-20T20:01:41;2.40;1.00
1181;DHT22;579;52.046;8.532;2023-01-20T20:04:09;2.30;1.00
1181;DHT22;579;52.046;8.532;2023-01-20T20:06:38;2.10;1.00
1181;DHT22;579;52.046;8.532;2023-01-20T20:09:10;1.90;1.00
1181;DHT22;579;52.046;8.532;2023-01-20T20:11:37;1.90;1.00
1181;DHT22;579;52.046;8.532;2023-01-20T20:14:06;2.00;1.00
1181;DHT22;579;52.046;8.532;2023-01-20T20:19:27;1.90;1.00
1181;DHT22;579;52.046;8.532;2023-01-20T20:21:54;1.70;1.00
1181;DHT22;579;52.046;8.532;2023-01-20T20:24:23;1.60;1.00
1181;DHT22;579;52.046;8.532;2023-01-20T20:26:49;1.70;1.00
1181;DHT22;579;52.046;8.532;2023-01-20T20:29:17;1.60;1.00
1181;DHT22;579;52.046;8.532;2023-01-20T20:31:44;1.60;1.00
1181;DHT22;579;52.046;8.532;2023-01-20T20:34:12;1.60;1.00
1181;DHT22;579;52.046;8.532;2023-01-20T20:39:41;1.60;1.00
1181;DHT22;579;52.046;8.532;2023-01-20T20:42:07;1.50;1.00
1181;DHT22;579;52.046;8.532;2023-01-20T20:44:34;1.60;1.00
1181;DHT22;579;52.046;8.532;2023-01-20T20:47:00;1.70;1.00
1181;DHT22;579;52.046;8.532;2023-01-20T20:49:26;1.70;1.00
1181;DHT22;579;52.046;8.532;2023-01-20T20:51:53;1.60;1.00
1181;DHT22;579;52.046;8.532;2023-01-20T20:54:26;1.40;1.00
1181;DHT22;579;52.046;8.532;2023-01-20T20:56:55;1.50;1.00
1181;DHT22;579;52.046;8.532;2023-01-20T21:04:31;1.30;1.00
1181;DHT22;579;52.046;8.532;2023-01-20T21:06:57;1.80;1.00
1181;DHT22;579;52.046;8.532;2023-01-20T21:09:24;1.80;1.00
1181;DHT22;579;52.046;8.532;2023-01-20T21:11:50;1.50;1.00
1181;DHT22;579;52.046;8.532;2023-01-20T21:14:19;1.30;1.00
1181;DHT22;579;52.046;8.532;2023-01-20T21:16:48;1.60;1.00
1181;DHT22;579;52.046;8.532;2023-01-20T21:19:14;1.50;1.00
1181;DHT22;579;52.046;8.532;2023-01-20T21:24:20;1.40;1.00
1181;DHT22;579;52.046;8.532;2023-01-20T21:26:50;1.50;1.00
1181;DHT22;579;52.046;8.532;2023-01-20T21:29:16;1.30;1.00
1181;DHT22;579;52.046;8.532;2023-01-20T21:31:43;1.20;1.00
1181;DHT22;579;52.046;8.532;2023-01-20T21:34:12;1.40;1.00
1181;DHT22;579;52.046;8.532;2023-01-20T21:36:39;1.40;1.00
1181;DHT22;579;52.046;8.532;2023-01-20T21:39:10;1.10;1.00